createdAt,value
2023-09-08T00:01:44.808Z,0.00
2023-09-08T00:06:44.605Z,0.00
2023-09-08T00:11:44.750Z,0.00
2023-09-08T00:16:44.556Z,0.00
2023-09-08T00:21:44.604Z,0.00
2023-09-08T00:26:44.349Z,0.00
2023-09-08T00:31:47.325Z,0.00
2023-09-08T00:36:44.185Z,0.00
2023-09-08T00:41:44.149Z,0.00
2023-09-08T00:46:44.035Z,0.00
2023-09-08T00:51:44.075Z,0.00
2023-09-08T00:56:43.925Z,0.00
2023-09-08T01:01:43.910Z,0.00
2023-09-08T01:06:43.913Z,0.00
2023-09-08T01:11:44.156Z,0.00
2023-09-08T01:16:44.350Z,0.00
2023-09-08T01:21:43.769Z,0.00
2023-09-08T01:26:44.429Z,0.00
2023-09-08T01:31:46.872Z,0.00
2023-09-08T01:36:43.543Z,0.00
2023-09-08T01:41:43.402Z,0.00
2023-09-08T01:46:43.313Z,0.00
2023-09-08T01:51:43.253Z,0.00
2023-09-08T01:56:43.158Z,0.00
2023-09-08T02:01:43.204Z,0.00
2023-09-08T02:06:42.985Z,0.00
2023-09-08T02:11:43.050Z,0.00
2023-09-08T02:16:42.895Z,0.00
2023-09-08T02:21:42.817Z,0.00
2023-09-08T02:26:42.741Z,0.00
2023-09-08T02:31:45.691Z,0.00
2023-09-08T02:36:42.660Z,0.00
2023-09-08T02:41:42.532Z,0.00
2023-09-08T02:46:42.597Z,0.00
2023-09-08T02:51:42.540Z,0.00
2023-09-08T02:56:42.301Z,0.00
2023-09-08T03:01:42.966Z,0.00
2023-09-08T03:06:42.136Z,0.00
2023-09-08T03:11:42.155Z,0.00
2023-09-08T03:16:42.108Z,0.00
2023-09-08T03:21:42.164Z,0.00
2023-09-08T03:26:41.925Z,0.00
2023-09-08T03:31:45.010Z,0.00
2023-09-08T03:36:41.893Z,0.00
2023-09-08T03:41:41.878Z,0.00
2023-09-08T03:46:41.619Z,0.00
2023-09-08T03:51:41.550Z,0.00
2023-09-08T03:56:41.402Z,0.00
2023-09-08T04:01:41.489Z,4.00
2023-09-08T04:06:41.341Z,4.00
2023-09-08T04:11:41.306Z,8.00
2023-09-08T04:16:41.161Z,20.00
2023-09-08T04:21:41.156Z,44.00
2023-09-08T04:26:41.069Z,92.00
2023-09-08T04:31:44.102Z,168.00
2023-09-08T04:36:40.912Z,276.00
2023-09-08T04:41:40.876Z,420.00
2023-09-08T04:46:40.812Z,604.00
2023-09-08T04:51:40.743Z,812.00
2023-09-08T04:56:40.738Z,1044.00
2023-09-08T05:01:40.622Z,1288.00
2023-09-08T05:06:40.546Z,1544.00
2023-09-08T05:11:40.716Z,2264.00
2023-09-08T05:16:40.507Z,4276.00
2023-09-08T05:21:40.425Z,4980.00
2023-09-08T05:26:40.241Z,5836.00
2023-09-08T05:31:43.248Z,6388.00
2023-09-08T05:36:40.161Z,7408.00
2023-09-08T05:41:40.281Z,7648.00
2023-09-08T05:46:40.036Z,8928.00
2023-09-08T05:51:39.949Z,9980.00
2023-09-08T05:56:39.872Z,10624.00
2023-09-08T06:01:39.886Z,11100.00
2023-09-08T06:06:39.791Z,12616.00
2023-09-08T06:11:39.695Z,13312.00
2023-09-08T06:16:39.624Z,16032.00
2023-09-08T06:21:39.613Z,18080.00
2023-09-08T06:26:39.500Z,13888.00
2023-09-08T06:31:42.434Z,13544.00
2023-09-08T06:36:39.431Z,14396.00
2023-09-08T06:41:39.324Z,18944.00
2023-09-08T06:46:39.213Z,20480.00
2023-09-08T06:51:39.235Z,22592.00
2023-09-08T06:56:39.078Z,23872.00
2023-09-08T07:01:39.164Z,25472.00
2023-09-08T07:06:38.911Z,26464.00
2023-09-08T07:11:38.932Z,31552.00
2023-09-08T07:16:38.908Z,32160.00
2023-09-08T07:21:38.776Z,33856.00
2023-09-08T07:26:38.681Z,35072.00
2023-09-08T07:31:41.788Z,35648.00
2023-09-08T07:36:38.561Z,34880.00
2023-09-08T07:41:38.520Z,35648.00
2023-09-08T07:46:38.492Z,39744.00
2023-09-08T07:51:38.451Z,15548.00
2023-09-08T07:56:38.316Z,8764.00
2023-09-08T08:01:38.335Z,6508.00
2023-09-08T08:06:38.164Z,5116.00
2023-09-08T08:11:38.138Z,4428.00
2023-09-08T08:16:38.002Z,4384.00
2023-09-08T08:21:38.068Z,4336.00
2023-09-08T08:26:37.935Z,4292.00
2023-09-08T08:31:40.916Z,4272.00
2023-09-08T08:36:37.814Z,4272.00
2023-09-08T08:41:37.821Z,4264.00
2023-09-08T08:46:37.620Z,4240.00
2023-09-08T08:51:37.914Z,4220.00
2023-09-08T08:56:37.523Z,4176.00
2023-09-08T09:01:37.567Z,4152.00
2023-09-08T09:06:37.366Z,4144.00
2023-09-08T09:11:37.432Z,4116.00
2023-09-08T09:16:37.233Z,4112.00
2023-09-08T09:21:37.487Z,4100.00
2023-09-08T09:26:37.127Z,4064.00
2023-09-08T09:31:40.091Z,4032.00
2023-09-08T09:36:36.972Z,4016.00
2023-09-08T09:41:36.979Z,4008.00
2023-09-08T09:46:36.838Z,4000.00
2023-09-08T09:51:36.862Z,3984.00
2023-09-08T09:56:36.708Z,3944.00
2023-09-08T10:01:36.765Z,3912.00
2023-09-08T10:06:36.632Z,3880.00
2023-09-08T10:11:36.571Z,3868.00
2023-09-08T10:16:36.465Z,3836.00
2023-09-08T10:21:36.400Z,3812.00
2023-09-08T10:26:36.303Z,3800.00
2023-09-08T10:31:39.283Z,3784.00
2023-09-08T10:36:36.861Z,3784.00
2023-09-08T10:41:36.141Z,3760.00
2023-09-08T10:46:36.229Z,3756.00
2023-09-08T10:51:35.984Z,3768.00
2023-09-08T10:56:35.911Z,3772.00
2023-09-08T11:01:35.974Z,3788.00
2023-09-08T11:06:35.810Z,3792.00
2023-09-08T11:11:35.853Z,3812.00
2023-09-08T11:16:35.714Z,3828.00
2023-09-08T11:21:35.747Z,3840.00
2023-09-08T11:26:35.496Z,3848.00
2023-09-08T11:31:38.506Z,3860.00
2023-09-08T11:36:35.421Z,3868.00
2023-09-08T11:41:35.350Z,3876.00
2023-09-08T11:46:35.332Z,3884.00
2023-09-08T11:51:35.223Z,3896.00
2023-09-08T11:56:36.135Z,3912.00
2023-09-08T12:01:35.191Z,3940.00
2023-09-08T12:06:35.029Z,3948.00
2023-09-08T12:11:35.132Z,3968.00
2023-09-08T12:16:34.957Z,4004.00
2023-09-08T12:21:34.832Z,4040.00
2023-09-08T12:26:34.700Z,4072.00
2023-09-08T12:31:37.830Z,4112.00
2023-09-08T12:36:34.597Z,4144.00
2023-09-08T12:41:34.564Z,4164.00
2023-09-08T12:46:34.486Z,4180.00
2023-09-08T12:51:34.489Z,4208.00
2023-09-08T12:56:34.319Z,4228.00
2023-09-08T13:01:34.399Z,4240.00
2023-09-08T13:06:34.212Z,4264.00
2023-09-08T13:11:34.168Z,4268.00
2023-09-08T13:16:34.110Z,4284.00
2023-09-08T13:21:34.208Z,4288.00
2023-09-08T13:26:33.974Z,4276.00
2023-09-08T13:31:37.795Z,4256.00
2023-09-08T13:36:33.820Z,4252.00
2023-09-08T13:41:33.752Z,4252.00
2023-09-08T13:46:33.714Z,4268.00
2023-09-08T13:51:34.804Z,4268.00
2023-09-08T13:56:33.863Z,4296.00
2023-09-08T14:01:34.774Z,4316.00
2023-09-08T14:11:56.163Z,4440.00
2023-09-08T14:16:34.366Z,4704.00
2023-09-08T14:21:33.804Z,5180.00
2023-09-08T14:26:33.668Z,5752.00
2023-09-08T14:31:38.435Z,6724.00
2023-09-08T14:36:33.131Z,7536.00
2023-09-08T14:41:33.192Z,7852.00
2023-09-08T14:46:32.964Z,8064.00
2023-09-08T14:51:32.928Z,8228.00
2023-09-08T14:56:32.821Z,8448.00
2023-09-08T15:01:32.823Z,8688.00
2023-09-08T15:06:32.747Z,8980.00
2023-09-08T15:11:32.666Z,13732.00
2023-09-08T15:16:32.823Z,8748.00
2023-09-08T15:21:32.723Z,5772.00
2023-09-08T15:26:32.442Z,4144.00
2023-09-08T15:31:35.494Z,3384.00
2023-09-08T15:36:32.285Z,3236.00
2023-09-08T15:41:32.222Z,3172.00
2023-09-08T15:46:32.222Z,3096.00
2023-09-08T15:51:33.118Z,3016.00
2023-09-08T15:56:32.700Z,2936.00
2023-09-08T16:01:33.069Z,2856.00
2023-09-08T16:06:32.213Z,2768.00
2023-09-08T16:11:31.802Z,2672.00
2023-09-08T16:16:31.812Z,2580.00
2023-09-08T16:21:31.674Z,2480.00
2023-09-08T16:26:31.955Z,2380.00
2023-09-08T16:31:34.854Z,2276.00
2023-09-08T16:36:31.456Z,2164.00
2023-09-08T16:41:31.448Z,2052.00
2023-09-08T16:46:31.326Z,1928.00
2023-09-08T16:51:31.381Z,1800.00
2023-09-08T16:56:31.268Z,1664.00
2023-09-08T17:01:31.350Z,1520.00
2023-09-08T17:06:31.149Z,1368.00
2023-09-08T17:11:31.012Z,1212.00
2023-09-08T17:16:30.919Z,1052.00
2023-09-08T17:21:31.097Z,884.00
2023-09-08T17:26:30.788Z,724.00
2023-09-08T17:31:33.821Z,564.00
2023-09-08T17:36:30.705Z,424.00
2023-09-08T17:41:30.660Z,292.00
2023-09-08T17:46:30.646Z,180.00
2023-09-08T17:51:30.488Z,92.00
2023-09-08T17:56:30.553Z,40.00
2023-09-08T18:01:30.428Z,16.00
2023-09-08T18:06:30.276Z,8.00
2023-09-08T18:11:30.272Z,4.00
2023-09-08T18:16:30.146Z,0.00
2023-09-08T18:21:30.094Z,0.00
2023-09-08T18:26:30.274Z,0.00
2023-09-08T18:31:33.121Z,0.00
2023-09-08T18:36:29.887Z,0.00
2023-09-08T18:41:29.829Z,0.00
2023-09-08T18:46:29.871Z,0.00
2023-09-08T18:51:29.796Z,0.00
2023-09-08T18:56:29.607Z,0.00
2023-09-08T19:01:29.550Z,0.00
2023-09-08T19:06:29.459Z,0.00
2023-09-08T19:11:29.629Z,0.00
2023-09-08T19:16:29.388Z,0.00
2023-09-08T19:21:29.280Z,0.00
2023-09-08T19:26:29.228Z,0.00
2023-09-08T19:31:32.334Z,0.00
2023-09-08T19:36:29.044Z,0.00
2023-09-08T19:41:29.136Z,0.00
2023-09-08T19:46:29.125Z,0.00
2023-09-08T19:51:28.924Z,0.00
2023-09-08T19:56:28.862Z,0.00
2023-09-08T20:01:28.928Z,0.00
2023-09-08T20:06:29.666Z,0.00
2023-09-08T20:11:28.650Z,0.00
2023-09-08T20:16:28.602Z,0.00
2023-09-08T20:21:28.531Z,0.00
2023-09-08T20:26:28.487Z,0.00
2023-09-08T20:31:31.728Z,0.00
2023-09-08T20:36:28.532Z,0.00
2023-09-08T20:41:28.324Z,0.00
2023-09-08T20:46:28.218Z,0.00
2023-09-08T20:51:28.101Z,0.00
2023-09-08T20:56:28.023Z,0.00
2023-09-08T21:01:28.166Z,0.00
2023-09-08T21:06:27.884Z,0.00
2023-09-08T21:11:27.947Z,0.00
2023-09-08T21:16:27.848Z,0.00
2023-09-08T21:21:27.943Z,0.00
2023-09-08T21:26:27.643Z,0.00
2023-09-08T21:31:30.656Z,0.00
2023-09-08T21:36:27.492Z,0.00
2023-09-08T21:41:27.428Z,0.00
2023-09-08T21:46:27.335Z,0.00
2023-09-08T21:51:27.341Z,0.00
2023-09-08T21:56:27.201Z,0.00
2023-09-08T22:01:27.175Z,0.00
2023-09-08T22:06:27.595Z,0.00
2023-09-08T22:11:27.557Z,0.00
2023-09-08T22:16:27.184Z,0.00
2023-09-08T22:21:28.044Z,0.00
2023-09-08T22:26:26.820Z,0.00
2023-09-08T22:31:29.836Z,0.00
2023-09-08T22:36:26.932Z,0.00
2023-09-08T22:41:26.717Z,0.00
2023-09-08T22:46:26.642Z,0.00
2023-09-08T22:51:26.575Z,0.00
2023-09-08T22:56:26.504Z,0.00
2023-09-08T23:01:26.444Z,0.00
2023-09-08T23:06:26.394Z,0.00
2023-09-08T23:11:26.263Z,0.00
2023-09-08T23:16:26.175Z,0.00
2023-09-08T23:21:26.138Z,0.00
2023-09-08T23:26:26.032Z,0.00
2023-09-08T23:31:29.122Z,0.00
2023-09-08T23:36:25.874Z,0.00
2023-09-08T23:41:25.965Z,0.00
2023-09-08T23:46:25.817Z,0.00
2023-09-08T23:51:26.250Z,0.00
2023-09-08T23:56:25.635Z,0.00
